Terminal Aerodrome Forecast
Issued by NWS Twin Cities, MN

Home | Current Version | Previous Version | Graphics & Text | Print | Product List | Glossary On
Versions: 1 2 3 4 5 6 7 8 9 10 11 12 13 14 15 16 17 18 19 20 21 22 23 24 25
026
FTUS43 KMPX 222042 AAB
TAFMSP
TAF AMD
KMSP 222042Z 2221/2324 33007KT P6SM VCSH SCT020 BKN050
      TEMPO 2221/2224 5SM SHRA SCT015 OVC040
     FM230000 25004KT P6SM SCT120
     FM231400 30010KT P6SM BKN050
     FM231700 31015G23KT P6SM BKN050=

USA.gov is the U.S. government's official web portal to all federal, state and local government web resources and services.